createdAt,value
2023-05-21T10:52:08.952Z,7.53
2023-05-21T10:54:54.277Z,6.10
2023-05-21T10:59:53.407Z,6.93
2023-05-21T11:02:21.011Z,8.55
2023-05-21T11:04:49.046Z,6.00
2023-05-21T11:07:24.518Z,6.40
2023-05-21T11:09:51.020Z,6.85
2023-05-21T11:12:17.971Z,8.05
2023-05-21T11:14:58.010Z,5.93
2023-05-21T11:17:39.349Z,6.10
2023-05-21T11:20:11.628Z,7.13
2023-05-21T11:22:37.990Z,6.97
2023-05-21T11:25:04.962Z,10.52
2023-05-21T11:27:35.873Z,6.65
2023-05-21T11:30:08.148Z,9.07
2023-05-21T11:33:13.619Z,7.85
2023-05-21T11:35:59.923Z,7.65
2023-05-21T11:38:31.584Z,10.05
2023-05-21T11:41:03.646Z,7.88
2023-05-21T11:43:30.946Z,6.65
2023-05-21T11:45:57.756Z,6.30
2023-05-21T11:48:29.428Z,8.10
2023-05-21T11:50:57.420Z,8.07
2023-05-21T11:53:23.953Z,8.00
2023-05-21T11:55:57.160Z,8.07
2023-05-21T11:58:23.673Z,8.10
2023-05-21T12:00:51.348Z,6.00
2023-05-21T12:03:18.015Z,7.50
2023-05-21T12:05:48.845Z,9.20
2023-05-21T12:08:27.729Z,9.10
2023-05-21T12:11:01.771Z,9.80
2023-05-21T12:13:28.544Z,8.82
2023-05-21T12:15:55.050Z,8.27
2023-05-21T12:18:21.993Z,7.40
2023-05-21T12:20:48.497Z,7.95
2023-05-21T12:23:23.774Z,6.72
2023-05-21T12:25:51.149Z,8.27
2023-05-21T12:28:17.637Z,7.15
2023-05-21T12:30:44.247Z,8.40
2023-05-21T12:33:12.049Z,9.40
2023-05-21T12:35:38.615Z,9.68
2023-05-21T12:38:06.926Z,10.32
2023-05-21T12:40:38.304Z,9.32
2023-05-21T12:43:06.090Z,9.88
2023-05-21T12:45:33.126Z,8.98
2023-05-21T12:48:03.176Z,9.23
2023-05-21T12:50:29.773Z,7.75
2023-05-21T12:52:58.398Z,8.35
2023-05-21T12:55:28.492Z,8.48
2023-05-21T12:58:05.583Z,11.80
2023-05-21T13:00:32.803Z,10.63
2023-05-21T13:03:00.975Z,10.23
2023-05-21T13:05:27.569Z,9.60
2023-05-21T13:07:53.961Z,11.60
2023-05-21T13:10:20.499Z,8.98
2023-05-21T13:12:46.974Z,10.45
2023-05-21T13:15:15.548Z,9.73
2023-05-21T13:17:42.120Z,9.88
2023-05-21T13:20:15.668Z,9.85
2023-05-21T13:22:46.390Z,11.32
2023-05-21T13:25:18.181Z,12.80
2023-05-21T13:27:44.972Z,7.95
2023-05-21T13:30:11.880Z,8.82
2023-05-21T13:32:39.631Z,8.68
2023-05-21T13:35:06.972Z,12.40
2023-05-21T13:37:36.099Z,12.55
2023-05-21T13:40:04.728Z,13.93
2023-05-21T13:42:31.200Z,10.93
2023-05-21T13:44:58.146Z,8.15
2023-05-21T13:47:24.787Z,8.98
2023-05-21T13:49:51.394Z,8.73
2023-05-21T13:52:17.857Z,11.52
2023-05-21T13:54:44.265Z,9.60
2023-05-21T13:57:10.797Z,9.48
2023-05-21T13:59:37.354Z,11.55
2023-05-21T14:02:04.033Z,12.02
2023-05-21T14:04:30.694Z,9.73
2023-05-21T14:06:57.235Z,10.10
2023-05-21T14:09:26.976Z,12.45
2023-05-21T14:11:54.969Z,9.70
2023-05-21T14:14:21.851Z,8.25
2023-05-21T14:16:49.187Z,9.95
2023-05-21T14:19:16.448Z,10.70
2023-05-21T14:21:43.211Z,9.25
2023-05-21T14:24:10.282Z,9.50
2023-05-21T14:26:42.940Z,10.57
2023-05-21T14:29:10.097Z,10.30
2023-05-21T14:31:37.822Z,10.07
2023-05-21T14:34:05.165Z,10.65
2023-05-21T14:36:32.447Z,9.48
2023-05-21T14:38:59.124Z,9.88
2023-05-21T14:41:26.932Z,12.52
2023-05-21T14:43:53.916Z,11.95
2023-05-21T14:46:20.657Z,9.07
2023-05-21T14:48:47.108Z,9.43
2023-05-21T14:51:14.284Z,7.40
2023-05-21T14:53:40.745Z,8.98
2023-05-21T14:56:07.960Z,10.57
2023-05-21T14:58:34.404Z,7.82
2023-05-21T15:01:02.512Z,9.27
2023-05-21T15:03:28.962Z,7.20
2023-05-21T15:05:55.573Z,6.80
2023-05-21T15:08:22.658Z,6.32
2023-05-21T15:10:49.269Z,8.93
2023-05-21T15:13:15.704Z,6.22
2023-05-21T15:15:42.139Z,6.72
2023-05-21T15:18:08.912Z,10.10
2023-05-21T15:20:35.413Z,6.47
2023-05-21T15:25:31.220Z,6.13
2023-05-21T15:27:57.673Z,7.20
2023-05-21T15:30:25.378Z,9.07
2023-05-21T15:32:51.959Z,8.10
2023-05-21T15:35:18.681Z,8.68
2023-05-21T15:37:46.077Z,8.73
2023-05-21T15:40:12.942Z,8.45
2023-05-21T15:42:39.281Z,6.97
2023-05-21T15:45:06.326Z,7.22
2023-05-21T15:47:32.968Z,8.07
2023-05-21T15:50:00.469Z,8.20
2023-05-21T15:52:27.156Z,8.63
2023-05-21T15:54:54.754Z,8.70
2023-05-21T15:57:21.202Z,8.10
2023-05-21T15:59:47.719Z,13.90
2023-05-21T16:02:14.193Z,9.90
2023-05-21T16:04:40.650Z,5.85
2023-05-21T16:07:07.125Z,7.32
2023-05-21T16:09:33.742Z,9.25
2023-05-21T16:12:00.821Z,8.38
2023-05-21T16:14:29.174Z,8.05
2023-05-21T16:16:55.873Z,9.90
2023-05-21T16:19:22.318Z,8.23
2023-05-21T16:21:48.753Z,8.25
2023-05-21T16:24:15.461Z,7.97
2023-05-21T16:26:41.862Z,7.15
2023-05-21T16:29:08.346Z,8.25
2023-05-21T16:31:34.906Z,7.28
2023-05-21T16:34:01.344Z,9.40
2023-05-21T16:36:27.969Z,6.05
2023-05-21T16:38:54.419Z,7.20
2023-05-21T16:41:21.650Z,5.95
2023-05-21T16:43:48.222Z,7.95
2023-05-21T16:46:14.729Z,7.05
2023-05-21T16:48:42.612Z,8.93
2023-05-21T16:51:09.106Z,7.53
2023-05-21T16:53:35.610Z,7.10
2023-05-21T16:56:01.973Z,5.47
2023-05-21T16:58:28.428Z,8.27
2023-05-21T17:00:54.851Z,6.72
2023-05-21T17:03:21.393Z,7.43
2023-05-21T17:05:47.874Z,6.95
2023-05-21T17:08:14.309Z,5.80
2023-05-21T17:10:40.691Z,8.20
2023-05-21T17:13:20.912Z,7.20
2023-05-21T17:15:48.587Z,9.05
2023-05-21T17:18:15.298Z,10.40
2023-05-21T17:20:43.917Z,6.93
2023-05-21T17:23:11.473Z,8.98
2023-05-21T17:25:38.229Z,8.23
2023-05-21T17:28:04.953Z,6.80
2023-05-21T17:30:31.393Z,7.40
2023-05-21T17:32:58.265Z,9.55
2023-05-21T17:35:24.795Z,9.00
2023-05-21T17:37:53.203Z,10.27
2023-05-21T17:40:21.258Z,8.50
2023-05-21T17:42:47.872Z,6.78
2023-05-21T17:45:14.428Z,7.35
2023-05-21T17:47:40.968Z,7.07
2023-05-21T17:50:08.155Z,8.32
2023-05-21T17:52:34.593Z,7.53
2023-05-21T17:55:01.692Z,9.45
2023-05-21T17:57:28.077Z,9.88
2023-05-21T17:59:55.111Z,12.15
2023-05-21T18:02:23.339Z,9.35
2023-05-21T18:04:49.910Z,8.85
2023-05-21T18:07:16.536Z,7.53
2023-05-21T18:09:42.955Z,9.75
2023-05-21T18:12:09.422Z,7.53
2023-05-21T18:14:35.852Z,8.98
2023-05-21T18:17:02.626Z,9.77
2023-05-21T18:19:30.431Z,10.85
2023-05-21T18:21:57.154Z,11.23
2023-05-21T18:24:23.577Z,9.13
2023-05-21T18:26:50.012Z,13.60
2023-05-21T18:29:16.403Z,11.43
2023-05-21T18:31:45.787Z,11.02
2023-05-21T18:34:12.391Z,9.10
2023-05-21T18:36:39.085Z,11.35
2023-05-21T18:39:07.016Z,14.38
2023-05-21T18:41:34.039Z,11.98
2023-05-21T18:44:03.576Z,9.88
2023-05-21T18:46:30.120Z,13.88
2023-05-21T18:48:56.598Z,9.98
2023-05-21T18:53:49.481Z,13.57
2023-05-21T18:56:16.259Z,11.43
2023-05-21T18:58:42.759Z,11.55
2023-05-21T19:01:09.198Z,10.32
2023-05-21T19:03:35.726Z,11.30
2023-05-21T19:06:02.295Z,13.05
2023-05-21T19:08:28.640Z,13.95
2023-05-21T19:10:55.149Z,13.82
2023-05-21T19:13:23.224Z,11.20
2023-05-21T19:15:49.763Z,14.15
2023-05-21T19:18:17.171Z,15.80
2023-05-21T19:20:43.727Z,14.45
2023-05-21T19:23:10.152Z,14.93
2023-05-21T19:28:03.083Z,12.57
2023-05-21T19:30:29.491Z,11.85
2023-05-21T19:32:56.330Z,13.50
2023-05-21T19:35:22.881Z,13.23
2023-05-21T19:40:17.558Z,15.57
2023-05-21T19:42:44.512Z,15.95
2023-05-21T19:45:11.733Z,13.63
2023-05-21T19:47:40.904Z,14.13
2023-05-21T19:50:08.023Z,16.80
2023-05-21T19:52:34.478Z,14.70
2023-05-21T19:55:04.729Z,14.70
2023-05-21T19:57:32.565Z,14.98
2023-05-21T19:59:59.415Z,13.32
2023-05-21T20:02:28.460Z,14.57
2023-05-21T20:04:56.885Z,14.07
2023-05-21T20:07:23.715Z,12.60
2023-05-21T20:09:50.455Z,12.48
2023-05-21T20:12:16.839Z,12.82
2023-05-21T20:14:46.600Z,12.90
2023-05-21T20:17:13.587Z,12.88
2023-05-21T20:19:40.030Z,13.38
2023-05-21T20:22:06.512Z,11.82
2023-05-21T20:27:01.604Z,14.70
2023-05-21T20:29:28.765Z,14.73
2023-05-21T20:31:55.435Z,12.38
2023-05-21T20:34:21.823Z,13.95
2023-05-21T20:36:48.422Z,12.43
2023-05-21T20:41:44.531Z,14.52
2023-05-21T20:44:11.139Z,13.52
2023-05-21T20:46:38.310Z,14.82
2023-05-21T20:49:05.164Z,13.25
2023-05-21T20:51:31.661Z,14.40
2023-05-21T20:53:58.048Z,13.52
2023-05-21T20:56:40.801Z,13.73
2023-05-21T20:59:10.483Z,14.82
2023-05-21T21:01:37.955Z,11.55
2023-05-21T21:04:04.998Z,17.02
2023-05-21T21:06:31.806Z,16.38
2023-05-21T21:08:58.385Z,12.48
2023-05-21T21:11:25.024Z,12.20
2023-05-21T21:13:51.840Z,13.43
2023-05-21T21:16:18.584Z,15.13
2023-05-21T21:18:46.796Z,16.45
2023-05-21T21:21:13.406Z,12.75
2023-05-21T21:23:39.850Z,12.68
2023-05-21T21:26:06.301Z,14.82
2023-05-21T21:28:32.694Z,15.18
2023-05-21T21:30:59.103Z,13.73
2023-05-21T21:33:26.668Z,17.77
2023-05-21T21:35:53.210Z,13.10
2023-05-21T21:38:19.565Z,12.93
2023-05-21T21:40:46.035Z,16.30
2023-05-21T21:43:12.471Z,12.57
2023-05-21T21:45:38.885Z,11.15
2023-05-21T21:48:05.772Z,14.30
2023-05-21T21:50:32.414Z,13.77
2023-05-21T21:55:26.298Z,13.27
2023-05-21T21:57:52.701Z,13.95
2023-05-21T22:00:19.292Z,15.32
2023-05-21T22:05:14.833Z,16.48
2023-05-21T22:07:42.625Z,14.77
2023-05-21T22:10:09.693Z,13.80
2023-05-21T22:12:36.143Z,14.73
2023-05-21T22:15:06.612Z,17.48
2023-05-21T22:17:33.979Z,17.52
2023-05-21T22:20:01.179Z,17.83
2023-05-21T22:22:27.656Z,17.52
2023-05-21T22:24:54.351Z,15.57
2023-05-21T22:29:47.554Z,16.95
2023-05-21T22:32:13.979Z,14.77
2023-05-21T22:34:41.777Z,15.70
2023-05-21T22:37:08.353Z,18.52
2023-05-21T22:39:34.755Z,19.10
2023-05-21T22:42:01.968Z,14.70
2023-05-21T22:44:28.398Z,15.27
2023-05-21T22:46:56.442Z,17.15
2023-05-21T22:49:23.040Z,20.30
2023-05-21T22:51:50.882Z,17.45
2023-05-21T22:54:17.431Z,15.40
2023-05-21T22:56:44.305Z,18.85
2023-05-21T22:59:10.878Z,18.80
2023-05-21T23:01:38.200Z,15.63
2023-05-21T23:04:04.764Z,19.98
2023-05-21T23:06:31.706Z,18.55
2023-05-21T23:08:58.130Z,17.13
2023-05-21T23:11:24.662Z,15.82
2023-05-21T23:13:51.059Z,15.57
2023-05-21T23:16:17.490Z,21.20
2023-05-21T23:18:43.863Z,15.48
2023-05-21T23:21:10.488Z,21.23
2023-05-21T23:23:36.896Z,17.98
2023-05-21T23:26:03.321Z,19.60
2023-05-21T23:28:29.823Z,20.58
2023-05-21T23:30:56.325Z,19.52
2023-05-21T23:33:22.743Z,16.50
2023-05-21T23:35:49.147Z,23.65
2023-05-21T23:38:15.680Z,22.10
2023-05-21T23:40:42.283Z,17.42
2023-05-21T23:43:08.756Z,17.85
2023-05-21T23:45:35.393Z,20.30
2023-05-21T23:50:28.270Z,16.52
2023-05-21T23:52:54.942Z,22.27
